Impacts METAR Board
IDs:

KCVG - Cincinnati Intl, KY, US

Updated at: 1300 UTC 13 Dec 2018
Potential Impact None Slight Moderate High
Time 13/01Z 13/02Z 13/03Z 13/04Z 13/05Z 13/06Z 13/07Z 13/08Z 13/09Z 13/10Z 13/11Z 13/12Z 13/13Z
Temp38 38 37 37 40 41 42 41 38 41 39 40 41
Dewpt30 30 31 32 34 35 36 35 33 36 36 36 36
Altim29.95 29.97 29.97 29.98 29.99 30.01 30.03 30.04 30.06 30.07 30.08 30.10 30.12
VIS10 10 10 10 10 10 10 10 10 10 10 10 10
CIG-- -- -- -- -- -- -- -- -- 27 27 26 28
CoverFEWSCTFEWFEWFEWSCTFEWSCTFEWBKNBKNOVCOVC
FltCatVFRVFRVFRVFRVFRVFRVFRVFRVFRMVFRMVFRMVFRMVFR
WX--------------------------
WDir180180190190200210210230210210190180170
WSpd6 6 6 6 7 6 7 7 5 5 5 5 5
WGst-- -- -- -- -- -- -- -- -- -- -- -- --
Raw hourly METARs
KCVG 130052Z 18006KT 10SM FEW200 03/M01 A2995 RMK AO2 SLP146 T00331011
KCVG 130152Z 18006KT 10SM SCT041 03/M01 A2997 RMK AO2 SLP151 T00331011
KCVG 130252Z 19006KT 10SM FEW038 03/M01 A2997 RMK AO2 SLP152 T00281006 51010
KCVG 130352Z 19006KT 10SM FEW036 03/00 A2998 RMK AO2 SLP155 T00280000
KCVG 130452Z 20007KT 10SM FEW030 04/01 A2999 RMK AO2 SLP157 FEW V SCT T00440011 400940000
KCVG 130552Z 21006KT 10SM SCT031 05/02 A3001 RMK AO2 SLP163 T00500017 10056 20022 53013
KCVG 130652Z 21007KT 10SM FEW029 06/02 A3003 RMK AO2 SLP168 T00560022
KCVG 130752Z 23007KT 10SM SCT042 05/02 A3004 RMK AO2 SLP174 T00500017
KCVG 130852Z 21005KT 10SM FEW033 FEW041 03/01 A3006 RMK AO2 SLP178 T00330006 51015
KCVG 131002Z 21005KT 10SM BKN027 05/02 A3007 RMK AO2 T00500022
KCVG 131052Z 19005KT 10SM BKN027 04/02 A3008 RMK AO2 SLP190 T00390022
KCVG 131152Z 18005KT 10SM OVC026 04/02 A3010 RMK AO2 SLP197 T00440022 10056 20028 53016
KCVG 131252Z 17005KT 10SM OVC028 05/02 A3012 RMK AO2 SLP202 T00500022



Page loaded:  13:04 UTC  |   05:04 AM Pacific  |   06:04 AM Mountain  |   07:04 AM Central  |   08:04 AM Eastern

 

ADVISORIES

FORECASTS

FORECASTS

OBSERVATIONS

USER TOOLS

ABOUT US